Time;durP1;ratioP1;P1;durP2;ratioP2;P2;SDS_P1;SDS_P2;PMS_P1;PMS_P2;Temp;Humidity;BMP_temperature;BMP_pressure;BME280_temperature;BME280_humidity;BME280_pressure;Samples;Min_cycle;Max_cycle;Signal;HPM_P1;HPM_P2
2023/08/07 00:02:09;;;;;;;;;3.00;1.00;;;;;;;;5070716;28;45803;-77
2023/08/07 00:04:34;;;;;;;;;6.33;2.67;;;;;;;;5073638;28;46070;-77
2023/08/07 00:06:59;;;;;;;;;2.00;2.00;;;;;;;;5072977;28;45569;-78
2023/08/07 00:09:25;;;;;;;;;2.67;1.00;;;;;;;;5052871;28;47084;-79
2023/08/07 00:11:50;;;;;;;;;4.00;2.33;;;;;;;;5052422;28;47961;-77
2023/08/07 00:14:15;;;;;;;;;1.33;1.33;;;;;;;;5071701;28;45477;-78
2023/08/07 00:16:41;;;;;;;;;2.33;1.33;;;;;;;;5061442;28;45753;-77
2023/08/07 00:19:06;;;;;;;;;3.00;1.67;;;;;;;;5070719;28;45707;-79
2023/08/07 00:21:31;;;;;;;;;1.33;1.33;;;;;;;;5052952;28;47098;-78
2023/08/07 00:23:57;;;;;;;;;1.00;1.00;;;;;;;;5052742;28;45541;-77
2023/08/07 00:26:22;;;;;;;;;2.00;0.33;;;;;;;;5053418;28;45670;-78
2023/08/07 00:28:47;;;;;;;;;2.00;1.00;;;;;;;;5059283;28;45426;-78
2023/08/07 00:31:12;;;;;;;;;1.00;1.00;;;;;;;;5054133;28;48314;-76
2023/08/07 00:33:38;;;;;;;;;1.33;1.33;;;;;;;;5072047;28;45442;-76
2023/08/07 00:36:03;;;;;;;;;1.33;0.33;;;;;;;;5071182;28;45539;-76
2023/08/07 00:38:28;;;;;;;;;2.00;1.00;;;;;;;;5069778;28;46446;-77
2023/08/07 00:40:54;;;;;;;;;1.00;1.00;;;;;;;;5071268;28;45357;-77
2023/08/07 00:43:19;;;;;;;;;0.00;0.00;;;;;;;;5071532;28;45637;-76
2023/08/07 00:45:46;;;;;;;;;2.00;1.00;;;;;;;;5072246;28;45454;-77
2023/08/07 00:48:11;;;;;;;;;1.00;1.00;;;;;;;;5053049;28;46994;-77
2023/08/07 00:50:37;;;;;;;;;0.67;0.67;;;;;;;;5071589;28;45996;-78
2023/08/07 00:53:02;;;;;;;;;1.00;1.00;;;;;;;;5072360;28;45766;-78
2023/08/07 00:55:28;;;;;;;;;1.33;1.33;;;;;;;;5070901;28;45501;-76
2023/08/07 00:57:53;;;;;;;;;1.00;1.00;;;;;;;;5067758;28;45440;-78
2023/08/07 01:00:20;;;;;;;;;1.67;0.33;;;;;;;;5062694;28;45381;-77
2023/08/07 01:02:50;;;;;;;;;2.00;2.00;;;;;;;;5057980;28;45490;-77
2023/08/07 01:05:16;;;;;;;;;1.67;1.33;;;;;;;;5060825;28;45797;-78
2023/08/07 01:07:41;;;;;;;;;3.00;2.00;;;;;;;;5050083;28;45847;-77
2023/08/07 01:10:07;;;;;;;;;5.00;2.00;;;;;;;;5073373;28;45678;-78
2023/08/07 01:13:01;;;;;;;;;1.67;1.00;;;;;;;;5073942;28;45691;-78
2023/08/07 01:15:30;;;;;;;;;3.67;1.33;;;;;;;;5068683;28;45430;-76
2023/08/07 01:17:56;;;;;;;;;1.00;1.00;;;;;;;;5073534;28;45834;-77
2023/08/07 01:20:21;;;;;;;;;5.00;1.00;;;;;;;;5071322;28;46529;-77
2023/08/07 01:22:46;;;;;;;;;4.00;2.00;;;;;;;;5070093;28;45426;-78
2023/08/07 01:25:12;;;;;;;;;1.00;1.00;;;;;;;;5052046;28;45784;-77
2023/08/07 01:27:53;;;;;;;;;2.00;2.00;;;;;;;;5070281;28;45878;-77
2023/08/07 01:30:26;;;;;;;;;0.67;0.67;;;;;;;;5069848;28;45828;-77
2023/08/07 01:32:58;;;;;;;;;1.00;1.00;;;;;;;;5062813;28;45544;-77
2023/08/07 01:35:25;;;;;;;;;0.00;0.00;;;;;;;;5048022;28;45656;-77
2023/08/07 01:37:51;;;;;;;;;0.33;0.33;;;;;;;;5040220;28;47263;-77
2023/08/07 01:40:17;;;;;;;;;4.00;1.00;;;;;;;;5041181;28;48048;-76
2023/08/07 01:42:44;;;;;;;;;1.00;1.00;;;;;;;;5067209;28;45464;-76
2023/08/07 01:45:09;;;;;;;;;1.67;1.00;;;;;;;;5069064;28;45573;-79
2023/08/07 01:47:35;;;;;;;;;1.00;1.00;;;;;;;;5051610;28;46575;-78
2023/08/07 01:50:00;;;;;;;;;2.00;2.00;;;;;;;;5070557;28;46834;-76
2023/08/07 01:52:25;;;;;;;;;1.33;1.33;;;;;;;;5046151;28;45581;-76
2023/08/07 01:54:50;;;;;;;;;2.00;1.00;;;;;;;;5066710;28;45636;-77
2023/08/07 01:57:16;;;;;;;;;3.00;2.00;;;;;;;;5068767;28;45790;-76
2023/08/07 01:59:41;;;;;;;;;3.00;1.67;;;;;;;;5052464;28;46997;-77
2023/08/07 02:02:06;;;;;;;;;3.00;1.00;;;;;;;;5051088;28;45516;-77
2023/08/07 02:04:31;;;;;;;;;1.33;1.33;;;;;;;;5069073;28;45516;-77
2023/08/07 02:06:57;;;;;;;;;1.67;1.33;;;;;;;;5045361;28;45916;-77
2023/08/07 02:09:22;;;;;;;;;1.67;1.67;;;;;;;;5066412;28;46550;-77
2023/08/07 02:11:47;;;;;;;;;3.67;1.00;;;;;;;;5049448;28;45889;-76
2023/08/07 02:14:13;;;;;;;;;2.00;2.00;;;;;;;;5069603;28;45465;-79
2023/08/07 02:16:38;;;;;;;;;0.67;0.67;;;;;;;;5066807;28;45453;-77
2023/08/07 02:19:03;;;;;;;;;2.00;2.00;;;;;;;;5048383;28;47001;-78
2023/08/07 02:21:28;;;;;;;;;2.00;1.00;;;;;;;;5051659;28;46172;-76
2023/08/07 02:23:54;;;;;;;;;3.33;2.67;;;;;;;;5061701;28;45623;-76
2023/08/07 02:26:19;;;;;;;;;5.00;2.33;;;;;;;;5051275;28;47038;-79
2023/08/07 02:28:44;;;;;;;;;3.33;2.00;;;;;;;;5054813;28;47163;-76
2023/08/07 02:31:09;;;;;;;;;1.33;1.33;;;;;;;;5073455;28;45879;-77
2023/08/07 02:33:35;;;;;;;;;3.67;2.33;;;;;;;;5054881;28;45448;-76
2023/08/07 02:36:00;;;;;;;;;1.33;1.00;;;;;;;;5073953;28;45749;-77
2023/08/07 02:38:25;;;;;;;;;3.00;3.00;;;;;;;;5073957;28;46561;-77
2023/08/07 02:40:51;;;;;;;;;2.67;2.67;;;;;;;;5055451;28;45555;-78
2023/08/07 02:43:16;;;;;;;;;1.00;1.00;;;;;;;;5071983;28;45426;-78
2023/08/07 02:45:41;;;;;;;;;2.00;2.00;;;;;;;;5063330;28;45419;-79
2023/08/07 02:48:07;;;;;;;;;3.67;2.00;;;;;;;;5061099;28;45741;-77
2023/08/07 02:50:32;;;;;;;;;3.67;3.00;;;;;;;;5068124;28;45774;-77
2023/08/07 02:53:00;;;;;;;;;1.33;1.33;;;;;;;;5052209;28;45379;-78
2023/08/07 02:55:26;;;;;;;;;5.00;1.67;;;;;;;;5066623;28;45635;-79
2023/08/07 02:57:51;;;;;;;;;2.00;2.00;;;;;;;;5073174;28;45992;-77
2023/08/07 03:00:16;;;;;;;;;3.00;3.00;;;;;;;;5063410;28;45857;-78
2023/08/07 03:02:42;;;;;;;;;2.00;2.00;;;;;;;;5073881;28;45347;-78
2023/08/07 03:05:07;;;;;;;;;2.67;1.33;;;;;;;;5064210;28;46158;-76
2023/08/07 03:07:32;;;;;;;;;3.00;3.00;;;;;;;;5070957;28;45674;-77
2023/08/07 03:09:58;;;;;;;;;2.33;2.33;;;;;;;;5059093;28;45495;-76
2023/08/07 03:12:23;;;;;;;;;3.00;3.00;;;;;;;;5077070;28;45573;-76
2023/08/07 03:14:48;;;;;;;;;3.00;1.33;;;;;;;;5065349;28;45808;-75
2023/08/07 03:17:13;;;;;;;;;3.00;2.00;;;;;;;;5077805;28;45640;-78
2023/08/07 03:19:39;;;;;;;;;4.00;2.00;;;;;;;;5081252;28;45816;-76
2023/08/07 03:22:05;;;;;;;;;5.33;2.33;;;;;;;;5075427;28;45465;-76
2023/08/07 03:24:30;;;;;;;;;4.00;1.67;;;;;;;;5055606;28;45904;-77
2023/08/07 03:26:55;;;;;;;;;1.67;1.67;;;;;;;;5054086;28;47045;-77
2023/08/07 03:29:21;;;;;;;;;3.33;2.67;;;;;;;;5051971;28;45605;-76
2023/08/07 03:31:46;;;;;;;;;2.33;2.00;;;;;;;;5068272;28;45999;-76
2023/08/07 03:34:11;;;;;;;;;2.00;1.00;;;;;;;;5071269;28;45725;-76
2023/08/07 03:36:36;;;;;;;;;2.00;2.00;;;;;;;;5070994;28;45884;-76
2023/08/07 03:39:02;;;;;;;;;2.67;2.00;;;;;;;;5071210;28;45803;-78
2023/08/07 03:41:28;;;;;;;;;2.00;2.00;;;;;;;;5072383;28;45733;-77
2023/08/07 03:43:53;;;;;;;;;2.00;2.00;;;;;;;;5064581;28;45672;-76
2023/08/07 03:46:18;;;;;;;;;2.33;1.33;;;;;;;;5065322;28;45753;-76
2023/08/07 03:48:43;;;;;;;;;2.00;2.00;;;;;;;;5052650;28;45636;-76
2023/08/07 03:51:09;;;;;;;;;3.00;1.00;;;;;;;;5053005;28;45744;-77
2023/08/07 03:53:34;;;;;;;;;2.00;2.00;;;;;;;;5052618;28;45697;-78
2023/08/07 03:55:59;;;;;;;;;3.67;2.00;;;;;;;;5070821;28;45694;-78
2023/08/07 03:58:25;;;;;;;;;3.00;1.67;;;;;;;;5066864;28;45520;-77
2023/08/07 04:00:50;;;;;;;;;5.00;3.00;;;;;;;;5053799;28;46017;-76
2023/08/07 04:03:16;;;;;;;;;2.67;2.00;;;;;;;;5071377;28;45940;-77
2023/08/07 04:05:41;;;;;;;;;2.33;1.33;;;;;;;;5052300;28;46712;-76
2023/08/07 04:08:06;;;;;;;;;2.67;2.33;;;;;;;;5071267;28;45707;-78
2023/08/07 04:10:31;;;;;;;;;6.33;1.33;;;;;;;;5053174;28;45892;-76
2023/08/07 04:12:56;;;;;;;;;2.00;2.00;;;;;;;;5070449;28;45670;-78
2023/08/07 04:15:22;;;;;;;;;4.00;1.33;;;;;;;;5071908;28;45597;-78
2023/08/07 04:17:47;;;;;;;;;4.00;3.00;;;;;;;;5071390;28;45469;-77
2023/08/07 04:20:12;;;;;;;;;4.00;4.00;;;;;;;;5052537;28;45512;-77
2023/08/07 04:22:37;;;;;;;;;5.33;3.00;;;;;;;;5070795;28;45669;-77
2023/08/07 04:25:03;;;;;;;;;3.00;3.00;;;;;;;;5070517;28;46094;-78
2023/08/07 04:27:28;;;;;;;;;3.00;3.00;;;;;;;;5052758;28;45523;-76
2023/08/07 04:29:53;;;;;;;;;3.67;3.00;;;;;;;;5070374;28;45511;-78
2023/08/07 04:32:18;;;;;;;;;3.33;2.67;;;;;;;;5069833;28;46303;-77
2023/08/07 04:34:44;;;;;;;;;3.33;3.33;;;;;;;;5051268;28;48129;-76
2023/08/07 04:37:09;;;;;;;;;4.33;4.33;;;;;;;;5066757;28;45889;-78
2023/08/07 04:39:35;;;;;;;;;2.33;2.00;;;;;;;;5058567;28;45904;-77
2023/08/07 04:42:01;;;;;;;;;2.67;1.67;;;;;;;;5070014;28;46124;-78
2023/08/07 04:44:26;;;;;;;;;6.33;3.00;;;;;;;;5039551;28;48508;-77
2023/08/07 04:46:52;;;;;;;;;5.00;4.00;;;;;;;;5070711;28;45749;-78
2023/08/07 04:49:17;;;;;;;;;3.33;1.67;;;;;;;;5070706;28;45774;-78
2023/08/07 04:51:42;;;;;;;;;6.00;2.33;;;;;;;;5070096;28;45878;-77
2023/08/07 04:54:11;;;;;;;;;4.33;2.00;;;;;;;;5072423;28;46600;-78
2023/08/07 04:56:37;;;;;;;;;6.67;3.33;;;;;;;;5072610;28;45522;-78
2023/08/07 04:59:02;;;;;;;;;3.67;2.67;;;;;;;;5071190;28;45462;-77
2023/08/07 05:01:27;;;;;;;;;2.67;2.67;;;;;;;;5066696;28;45577;-78
2023/08/07 05:03:52;;;;;;;;;4.00;3.00;;;;;;;;5069880;28;46376;-77
2023/08/07 05:06:19;;;;;;;;;5.33;3.00;;;;;;;;5069988;28;45414;-77
2023/08/07 05:08:44;;;;;;;;;4.00;4.00;;;;;;;;5070708;28;45731;-78
2023/08/07 05:11:09;;;;;;;;;3.00;3.00;;;;;;;;5047260;28;45917;-77
2023/08/07 05:13:34;;;;;;;;;4.00;3.67;;;;;;;;5069728;28;45980;-77
2023/08/07 05:16:00;;;;;;;;;4.00;4.00;;;;;;;;5050043;28;45538;-78
2023/08/07 05:18:25;;;;;;;;;2.67;2.00;;;;;;;;5046626;28;46049;-76
2023/08/07 05:20:50;;;;;;;;;2.67;2.67;;;;;;;;5052583;28;46039;-77
2023/08/07 05:23:15;;;;;;;;;7.67;5.00;;;;;;;;5072487;28;45527;-77
2023/08/07 05:25:41;;;;;;;;;5.00;5.00;;;;;;;;5071214;28;46016;-76
2023/08/07 05:28:06;;;;;;;;;10.00;6.00;;;;;;;;5070078;28;45628;-78
2023/08/07 05:30:32;;;;;;;;;6.67;6.00;;;;;;;;5069481;28;46036;-78
2023/08/07 05:32:57;;;;;;;;;11.33;9.33;;;;;;;;5051384;28;47188;-77
2023/08/07 05:35:22;;;;;;;;;15.33;13.33;;;;;;;;5063639;28;45917;-77
2023/08/07 05:37:47;;;;;;;;;9.67;7.33;;;;;;;;5039621;28;45687;-77
2023/08/07 05:40:13;;;;;;;;;8.67;7.33;;;;;;;;5068986;28;45582;-76
2023/08/07 05:42:40;;;;;;;;;12.67;7.33;;;;;;;;5068431;28;46135;-76
2023/08/07 05:45:06;;;;;;;;;11.33;7.33;;;;;;;;5055753;28;45861;-78
2023/08/07 05:47:32;;;;;;;;;8.33;6.33;;;;;;;;5069631;28;45666;-78
2023/08/07 05:49:57;;;;;;;;;9.67;8.33;;;;;;;;5050951;28;47089;-78
2023/08/07 05:52:23;;;;;;;;;6.00;4.00;;;;;;;;5068365;28;45561;-78
2023/08/07 05:54:48;;;;;;;;;8.33;6.67;;;;;;;;5064811;28;45554;-80
2023/08/07 05:57:13;;;;;;;;;9.33;6.33;;;;;;;;5051159;28;45890;-78
2023/08/07 05:59:40;;;;;;;;;6.33;6.00;;;;;;;;5070115;28;45596;-76
2023/08/07 06:02:05;;;;;;;;;6.67;6.67;;;;;;;;5070189;28;45532;-77
2023/08/07 06:04:31;;;;;;;;;8.33;7.00;;;;;;;;5077169;28;45594;-78
2023/08/07 06:06:56;;;;;;;;;11.33;8.33;;;;;;;;5077663;28;45695;-76
2023/08/07 06:09:21;;;;;;;;;8.33;6.67;;;;;;;;5064684;28;45857;-78
2023/08/07 06:11:47;;;;;;;;;9.00;7.33;;;;;;;;5049538;28;47022;-78
2023/08/07 06:14:12;;;;;;;;;10.33;8.67;;;;;;;;5072124;28;45889;-77
2023/08/07 06:16:37;;;;;;;;;9.67;6.33;;;;;;;;5057542;28;45710;-78
2023/08/07 06:19:03;;;;;;;;;10.33;9.00;;;;;;;;5076360;28;45968;-74
2023/08/07 06:21:28;;;;;;;;;10.67;9.67;;;;;;;;5076097;28;45791;-78
2023/08/07 06:23:54;;;;;;;;;8.33;6.67;;;;;;;;5072131;28;45884;-77
2023/08/07 06:26:19;;;;;;;;;9.67;9.00;;;;;;;;5075703;28;46064;-77
2023/08/07 06:28:44;;;;;;;;;10.67;7.00;;;;;;;;5075874;28;45632;-77
2023/08/07 06:31:11;;;;;;;;;9.67;8.33;;;;;;;;5057594;28;47307;-79
2023/08/07 06:33:36;;;;;;;;;9.00;8.67;;;;;;;;5068903;28;45991;-77
2023/08/07 06:36:07;;;;;;;;;19.33;14.00;;;;;;;;5057720;28;45502;-78
2023/08/07 06:38:32;;;;;;;;;14.33;9.67;;;;;;;;5075678;28;45849;-78
2023/08/07 06:40:58;;;;;;;;;11.33;8.67;;;;;;;;5076994;28;46365;-85
2023/08/07 06:43:23;;;;;;;;;10.00;7.67;;;;;;;;5060057;28;44828;-82
2023/08/07 06:45:52;;;;;;;;;14.33;10.67;;;;;;;;5078240;28;45356;-83
2023/08/07 06:48:17;;;;;;;;;11.33;8.33;;;;;;;;5060881;28;45518;-83
2023/08/07 06:50:43;;;;;;;;;9.33;8.33;;;;;;;;5060780;28;46668;-82
2023/08/07 06:53:08;;;;;;;;;11.67;11.67;;;;;;;;5060467;28;45602;-82
2023/08/07 06:55:33;;;;;;;;;10.67;9.67;;;;;;;;5062823;28;45679;-82
2023/08/07 06:57:59;;;;;;;;;14.33;8.67;;;;;;;;5081766;28;45481;-82
2023/08/07 07:00:24;;;;;;;;;12.00;9.33;;;;;;;;5078125;28;46137;-82
2023/08/07 07:02:49;;;;;;;;;12.33;10.67;;;;;;;;5070721;28;45787;-83
2023/08/07 07:05:14;;;;;;;;;9.67;7.33;;;;;;;;5064018;28;45567;-83
2023/08/07 07:07:40;;;;;;;;;10.00;8.67;;;;;;;;5054393;28;46286;-83
2023/08/07 07:10:05;;;;;;;;;7.33;6.33;;;;;;;;5083241;28;46830;-82
2023/08/07 07:12:30;;;;;;;;;11.00;9.67;;;;;;;;5054537;28;45698;-81
2023/08/07 07:14:56;;;;;;;;;13.67;7.67;;;;;;;;5064357;28;45751;-83
2023/08/07 07:17:21;;;;;;;;;10.33;9.00;;;;;;;;5081271;28;45491;-83
2023/08/07 07:19:47;;;;;;;;;14.00;11.00;;;;;;;;5070343;28;47533;-81
2023/08/07 07:22:12;;;;;;;;;10.67;7.33;;;;;;;;5062532;28;45468;-82
2023/08/07 07:24:38;;;;;;;;;12.00;9.33;;;;;;;;5074432;28;45887;-82
2023/08/07 07:27:03;;;;;;;;;9.33;8.33;;;;;;;;5078053;28;45689;-82
2023/08/07 07:29:29;;;;;;;;;12.67;9.00;;;;;;;;5056651;28;47244;-82
2023/08/07 07:31:55;;;;;;;;;9.67;8.00;;;;;;;;5075905;28;45357;-84
2023/08/07 07:34:20;;;;;;;;;12.67;11.67;;;;;;;;5075790;28;45753;-83
2023/08/07 07:36:45;;;;;;;;;14.00;8.67;;;;;;;;5075600;28;45866;-83
2023/08/07 07:39:11;;;;;;;;;10.33;7.00;;;;;;;;5065663;28;45552;-82
2023/08/07 07:41:36;;;;;;;;;9.33;8.33;;;;;;;;5060103;28;45420;-82
2023/08/07 07:44:02;;;;;;;;;9.33;8.33;;;;;;;;5067013;28;45723;-82
2023/08/07 07:46:27;;;;;;;;;11.33;8.33;;;;;;;;5051442;28;45978;-83
2023/08/07 07:48:52;;;;;;;;;9.00;9.00;;;;;;;;5066193;28;45840;-84
2023/08/07 07:51:19;;;;;;;;;6.00;5.33;;;;;;;;5056283;28;45810;-82
2023/08/07 07:53:44;;;;;;;;;8.67;8.67;;;;;;;;5073771;28;45791;-83
2023/08/07 07:56:10;;;;;;;;;6.25;5.25;;;;;;;;5074158;28;45516;-82
2023/08/07 07:58:35;;;;;;;;;9.75;8.00;;;;;;;;5073880;28;45548;-80
2023/08/07 08:01:00;;;;;;;;;7.00;6.00;;;;;;;;5073141;28;45499;-83
2023/08/07 08:03:26;;;;;;;;;5.00;5.00;;;;;;;;5055150;28;45786;-82
2023/08/07 08:05:51;;;;;;;;;6.50;6.25;;;;;;;;5073286;28;46396;-80
2023/08/07 08:08:17;;;;;;;;;6.00;5.00;;;;;;;;5052825;28;46370;-83
2023/08/07 08:10:42;;;;;;;;;4.75;4.00;;;;;;;;5053380;28;45356;-83
2023/08/07 08:13:08;;;;;;;;;7.25;5.00;;;;;;;;5054416;28;45487;-85
2023/08/07 08:15:34;;;;;;;;;6.50;4.00;;;;;;;;5055585;28;46126;-82
2023/08/07 08:17:59;;;;;;;;;4.75;4.00;;;;;;;;5055098;28;47077;-83
2023/08/07 08:20:24;;;;;;;;;4.50;4.50;;;;;;;;5059265;28;45851;-81
2023/08/07 08:22:50;;;;;;;;;5.00;3.75;;;;;;;;5075103;28;45913;-81
2023/08/07 08:25:17;;;;;;;;;3.00;3.00;;;;;;;;5072120;28;45736;-81
2023/08/07 08:27:42;;;;;;;;;4.25;4.00;;;;;;;;5046964;28;45987;-82
2023/08/07 08:30:08;;;;;;;;;3.25;3.25;;;;;;;;5071049;28;45521;-82
2023/08/07 08:32:36;;;;;;;;;5.75;5.00;;;;;;;;5058746;28;45315;-83
2023/08/07 08:35:02;;;;;;;;;3.75;3.75;;;;;;;;5074037;28;45685;-82
2023/08/07 08:37:49;;;;;;;;;4.50;4.25;;;;;;;;5079235;28;46500;-83
2023/08/07 08:40:17;;;;;;;;;6.25;4.25;;;;;;;;5009837;28;45678;-77
2023/08/07 08:42:43;;;;;;;;;3.75;3.75;;;;;;;;5066086;28;45560;-79
2023/08/07 08:45:11;;;;;;;;;4.75;4.75;;;;;;;;5053990;28;47018;-78
2023/08/07 08:47:38;;;;;;;;;4.50;4.50;;;;;;;;5072429;28;46526;-78
2023/08/07 08:50:07;;;;;;;;;7.25;5.50;;;;;;;;5074491;28;45512;-77
2023/08/07 08:52:33;;;;;;;;;3.00;3.00;;;;;;;;5055020;28;45555;-81
2023/08/07 08:54:59;;;;;;;;;5.50;2.25;;;;;;;;5083054;28;44865;-83
2023/08/07 08:57:26;;;;;;;;;5.75;3.25;;;;;;;;5069094;28;45500;-82
2023/08/07 08:59:51;;;;;;;;;3.25;3.25;;;;;;;;5059849;28;45745;-77
2023/08/07 09:02:17;;;;;;;;;4.00;2.75;;;;;;;;5082064;28;45703;-76
2023/08/07 09:04:42;;;;;;;;;4.00;4.00;;;;;;;;5070262;28;45108;-76
2023/08/07 09:07:07;;;;;;;;;3.25;3.25;;;;;;;;5075872;28;45633;-82
2023/08/07 09:09:33;;;;;;;;;3.75;3.00;;;;;;;;5073600;28;45487;-83
2023/08/07 09:12:03;;;;;;;;;3.50;3.50;;;;;;;;5054495;28;45384;-85
2023/08/07 09:14:31;;;;;;;;;4.00;4.00;;;;;;;;5073166;28;45957;-77
2023/08/07 09:16:57;;;;;;;;;3.75;3.75;;;;;;;;5052638;28;48225;-78
2023/08/07 09:19:23;;;;;;;;;5.00;4.00;;;;;;;;5066834;28;45805;-77
2023/08/07 09:21:48;;;;;;;;;5.25;3.00;;;;;;;;5073936;28;45534;-82
2023/08/07 09:24:16;;;;;;;;;3.00;3.00;;;;;;;;5075084;28;45451;-81
2023/08/07 09:26:43;;;;;;;;;3.50;3.00;;;;;;;;5045220;28;47008;-83
2023/08/07 09:29:09;;;;;;;;;3.25;2.25;;;;;;;;5054612;28;45579;-83
2023/08/07 09:31:36;;;;;;;;;2.00;2.00;;;;;;;;5055747;28;45858;-82
2023/08/07 09:34:05;;;;;;;;;6.00;4.00;;;;;;;;5056728;28;45981;-82
2023/08/07 09:36:31;;;;;;;;;2.00;2.00;;;;;;;;5076235;28;45672;-83
2023/08/07 09:39:00;;;;;;;;;1.25;1.25;;;;;;;;5050774;28;45852;-84
2023/08/07 09:41:27;;;;;;;;;4.00;3.00;;;;;;;;5072423;28;45482;-81
2023/08/07 09:43:52;;;;;;;;;3.00;2.00;;;;;;;;5074155;28;45457;-84
2023/08/07 09:46:18;;;;;;;;;2.00;2.00;;;;;;;;5057255;28;47509;-84
2023/08/07 09:48:45;;;;;;;;;1.00;1.00;;;;;;;;5074721;28;45611;-77
2023/08/07 09:51:11;;;;;;;;;4.00;4.00;;;;;;;;5054546;28;45394;-85
2023/08/07 09:53:36;;;;;;;;;4.00;4.00;;;;;;;;5056519;28;45572;-84
2023/08/07 09:56:02;;;;;;;;;4.00;2.75;;;;;;;;5051432;28;47934;-82
2023/08/07 09:58:28;;;;;;;;;3.25;3.25;;;;;;;;5051925;28;45548;-83
2023/08/07 10:00:53;;;;;;;;;3.00;3.00;;;;;;;;5053374;28;45371;-83
2023/08/07 10:03:22;;;;;;;;;3.00;3.00;;;;;;;;5049205;28;46188;-78
2023/08/07 10:05:48;;;;;;;;;3.00;3.00;;;;;;;;5047876;28;47325;-78
2023/08/07 10:08:14;;;;;;;;;2.00;2.00;;;;;;;;5052897;28;45464;-83
2023/08/07 10:10:40;;;;;;;;;2.75;2.75;;;;;;;;5056782;28;45426;-84
2023/08/07 10:13:05;;;;;;;;;2.25;2.25;;;;;;;;5074533;28;45940;-84
2023/08/07 10:15:32;;;;;;;;;2.00;2.00;;;;;;;;5075423;28;45840;-83
2023/08/07 10:17:58;;;;;;;;;2.50;2.50;;;;;;;;5074889;28;45564;-82
2023/08/07 10:20:25;;;;;;;;;2.00;2.00;;;;;;;;5074043;28;44804;-83
2023/08/07 10:22:52;;;;;;;;;2.00;2.00;;;;;;;;5073409;28;46064;-82
2023/08/07 10:25:20;;;;;;;;;1.00;0.75;;;;;;;;5072529;28;47121;-82
2023/08/07 10:27:46;;;;;;;;;2.00;2.00;;;;;;;;5071503;28;45178;-82
2023/08/07 10:30:13;;;;;;;;;1.75;1.75;;;;;;;;5073153;28;44891;-83
2023/08/07 10:32:39;;;;;;;;;1.50;1.50;;;;;;;;5063870;28;44851;-82
2023/08/07 10:35:05;;;;;;;;;2.00;2.00;;;;;;;;5073814;28;45268;-81
2023/08/07 10:38:00;;;;;;;;;2.00;1.50;;;;;;;;5073912;28;44882;-83
2023/08/07 10:40:26;;;;;;;;;2.00;2.00;;;;;;;;5074698;28;44753;-82
2023/08/07 10:42:59;;;;;;;;;5.75;5.50;;;;;;;;5073784;28;45217;-83
2023/08/07 10:45:25;;;;;;;;;3.00;3.00;;;;;;;;5062032;28;45591;-83
2023/08/07 10:47:57;;;;;;;;;7.00;6.00;;;;;;;;5076587;28;44895;-84
2023/08/07 10:50:31;;;;;;;;;4.50;4.50;;;;;;;;5081694;28;45035;-82
2023/08/07 10:52:59;;;;;;;;;2.75;2.75;;;;;;;;5077334;28;46355;-84
2023/08/07 10:55:25;;;;;;;;;3.00;3.00;;;;;;;;5079920;28;47218;-83
2023/08/07 10:57:50;;;;;;;;;5.00;5.00;;;;;;;;5089216;28;44733;-83
2023/08/07 11:00:15;;;;;;;;;3.00;3.00;;;;;;;;5090168;28;45342;-85
2023/08/07 11:02:41;;;;;;;;;3.00;3.00;;;;;;;;5094073;28;45381;-84
2023/08/07 11:05:10;;;;;;;;;1.00;1.00;;;;;;;;5078793;28;47465;-82
2023/08/07 11:07:39;;;;;;;;;2.00;2.00;;;;;;;;5079316;28;45473;-84
2023/08/07 11:10:05;;;;;;;;;2.00;2.00;;;;;;;;5077462;28;45766;-82
2023/08/07 11:12:30;;;;;;;;;6.25;6.25;;;;;;;;5074133;28;45537;-83
2023/08/07 11:14:56;;;;;;;;;17.33;15.33;;;;;;;;5077927;28;46066;-83
2023/08/07 11:17:25;;;;;;;;;8.75;5.50;;;;;;;;5095616;28;45437;-82
2023/08/07 11:20:06;;;;;;;;;3.25;3.25;;;;;;;;5079005;28;45396;-83
2023/08/07 11:22:40;;;;;;;;;9.25;7.50;;;;;;;;5088702;28;44815;-85
2023/08/07 11:25:13;;;;;;;;;2.00;2.00;;;;;;;;5073517;28;46948;-84
2023/08/07 11:27:51;;;;;;;;;2.25;2.25;;;;;;;;5091994;28;44764;-83
2023/08/07 11:30:35;;;;;;;;;4.00;4.00;;;;;;;;5080309;28;45498;-84
2023/08/07 11:33:04;;;;;;;;;6.00;6.00;;;;;;;;5096766;28;45276;-83
2023/08/07 11:35:40;;;;;;;;;4.25;2.25;;;;;;;;5078894;28;47091;-83
2023/08/07 11:38:11;;;;;;;;;2.75;2.75;;;;;;;;5069765;28;45388;-84
2023/08/07 11:40:37;;;;;;;;;3.75;3.75;;;;;;;;5079200;28;44796;-83
2023/08/07 11:43:02;;;;;;;;;3.25;2.00;;;;;;;;5078802;28;45728;-83
2023/08/07 11:45:27;;;;;;;;;3.00;2.75;;;;;;;;5077563;28;45165;-83
2023/08/07 11:47:55;;;;;;;;;4.00;4.00;;;;;;;;5071425;28;45013;-82
2023/08/07 11:50:21;;;;;;;;;3.00;3.00;;;;;;;;5073874;28;46124;-83
2023/08/07 11:52:46;;;;;;;;;3.50;3.50;;;;;;;;5092440;28;45390;-81
2023/08/07 11:55:13;;;;;;;;;6.00;4.75;;;;;;;;5058792;28;47350;-83
2023/08/07 11:57:39;;;;;;;;;2.00;2.00;;;;;;;;5075796;28;45562;-83
2023/08/07 12:00:14;;;;;;;;;2.00;2.00;;;;;;;;5061396;28;45549;-82
2023/08/07 12:02:43;;;;;;;;;1.75;0.25;;;;;;;;5079198;28;45467;-82
2023/08/07 12:05:10;;;;;;;;;2.50;2.50;;;;;;;;5060439;28;46726;-84
2023/08/07 12:07:36;;;;;;;;;1.00;1.00;;;;;;;;5059612;28;45275;-84
2023/08/07 12:10:02;;;;;;;;;1.00;1.00;;;;;;;;5057454;28;45437;-78
2023/08/07 12:12:27;;;;;;;;;3.75;3.00;;;;;;;;5076750;28;45887;-83
2023/08/07 12:14:54;;;;;;;;;2.50;2.50;;;;;;;;5062541;28;47151;-82
2023/08/07 12:17:21;;;;;;;;;1.75;1.50;;;;;;;;5062405;28;45455;-83
2023/08/07 12:19:46;;;;;;;;;4.00;4.00;;;;;;;;5053365;28;45383;-83
2023/08/07 12:22:13;;;;;;;;;6.00;6.00;;;;;;;;5072778;28;45377;-82
2023/08/07 12:24:40;;;;;;;;;2.00;1.25;;;;;;;;5058738;28;45992;-84
2023/08/07 12:27:05;;;;;;;;;5.00;5.00;;;;;;;;5075636;28;45459;-82
2023/08/07 12:29:31;;;;;;;;;2.00;2.00;;;;;;;;5076108;28;45496;-82
2023/08/07 12:31:58;;;;;;;;;12.25;9.25;;;;;;;;5078331;28;45657;-82
2023/08/07 12:34:24;;;;;;;;;3.00;3.00;;;;;;;;5069006;28;45846;-82
2023/08/07 12:36:49;;;;;;;;;9.75;8.75;;;;;;;;5081995;28;45490;-83
2023/08/07 12:39:15;;;;;;;;;3.00;2.75;;;;;;;;5073482;28;45450;-83
2023/08/07 12:41:40;;;;;;;;;2.50;2.50;;;;;;;;5059972;28;46001;-83
2023/08/07 12:44:05;;;;;;;;;5.00;5.00;;;;;;;;5057376;28;47130;-83
2023/08/07 12:46:30;;;;;;;;;3.00;3.00;;;;;;;;5075478;28;45676;-83
2023/08/07 12:48:55;;;;;;;;;2.75;2.75;;;;;;;;5057293;28;45375;-83
2023/08/07 12:51:21;;;;;;;;;3.00;2.75;;;;;;;;5058610;28;45732;-82
2023/08/07 12:53:47;;;;;;;;;3.00;3.00;;;;;;;;5058138;28;48225;-83
2023/08/07 12:56:12;;;;;;;;;4.50;4.50;;;;;;;;5055538;28;45540;-83
2023/08/07 12:58:38;;;;;;;;;3.25;3.25;;;;;;;;5056788;28;45417;-83
2023/08/07 13:01:04;;;;;;;;;5.00;5.00;;;;;;;;5054029;28;45825;-83
2023/08/07 13:03:29;;;;;;;;;2.75;2.75;;;;;;;;5076651;28;46504;-84
2023/08/07 13:05:54;;;;;;;;;3.25;3.25;;;;;;;;5055852;28;45452;-82
2023/08/07 13:08:20;;;;;;;;;6.00;5.00;;;;;;;;5069482;28;45407;-83
2023/08/07 13:10:45;;;;;;;;;5.50;5.50;;;;;;;;5066567;28;45982;-80
2023/08/07 13:13:10;;;;;;;;;5.25;5.25;;;;;;;;5076533;28;45582;-83
2023/08/07 13:15:35;;;;;;;;;4.75;4.75;;;;;;;;5076939;28;45414;-83
2023/08/07 13:18:01;;;;;;;;;3.00;3.00;;;;;;;;5060847;28;45478;-84
2023/08/07 13:20:27;;;;;;;;;7.00;7.00;;;;;;;;5050057;28;45452;-85
2023/08/07 13:22:52;;;;;;;;;8.00;6.00;;;;;;;;5059455;28;47259;-83
2023/08/07 13:25:17;;;;;;;;;4.50;4.00;;;;;;;;5077705;28;45461;-82
2023/08/07 13:27:43;;;;;;;;;8.00;5.50;;;;;;;;5057230;28;45623;-83
2023/08/07 13:30:08;;;;;;;;;5.00;4.00;;;;;;;;5057996;28;45937;-84
2023/08/07 13:32:34;;;;;;;;;6.00;5.00;;;;;;;;5060046;28;45561;-84
2023/08/07 13:34:59;;;;;;;;;4.50;4.50;;;;;;;;5049273;28;45979;-83
2023/08/07 13:37:24;;;;;;;;;3.00;3.00;;;;;;;;5077741;28;45454;-84
2023/08/07 13:39:52;;;;;;;;;4.00;4.00;;;;;;;;5056741;28;46100;-79
2023/08/07 13:42:17;;;;;;;;;5.75;3.25;;;;;;;;5051829;28;47095;-78
2023/08/07 13:44:43;;;;;;;;;4.50;4.50;;;;;;;;5039570;28;45736;-78
2023/08/07 13:47:10;;;;;;;;;4.00;4.00;;;;;;;;5073217;28;45475;-79
2023/08/07 13:49:35;;;;;;;;;6.00;4.50;;;;;;;;5072400;28;45789;-79
2023/08/07 13:52:00;;;;;;;;;3.00;3.00;;;;;;;;5054120;28;47066;-78
2023/08/07 13:54:25;;;;;;;;;4.50;4.50;;;;;;;;5062455;28;45508;-81
2023/08/07 13:56:51;;;;;;;;;3.00;3.00;;;;;;;;5075357;28;45343;-79
2023/08/07 13:59:16;;;;;;;;;4.00;4.00;;;;;;;;5074075;28;46244;-80
2023/08/07 14:01:41;;;;;;;;;3.50;2.25;;;;;;;;5059459;28;47235;-83
2023/08/07 14:04:07;;;;;;;;;5.00;5.00;;;;;;;;5058564;28;45484;-82
2023/08/07 14:06:33;;;;;;;;;14.25;9.00;;;;;;;;5069754;28;45870;-80
2023/08/07 14:08:58;;;;;;;;;6.67;5.67;;;;;;;;5081723;28;45300;-82
2023/08/07 14:11:27;;;;;;;;;5.00;5.00;;;;;;;;5064709;28;46426;-84
2023/08/07 14:13:53;;;;;;;;;2.75;2.50;;;;;;;;5060509;28;45452;-85
2023/08/07 14:16:18;;;;;;;;;4.00;4.00;;;;;;;;5083805;28;45421;-84
2023/08/07 14:18:43;;;;;;;;;7.50;6.25;;;;;;;;5057006;28;46023;-78
2023/08/07 14:21:08;;;;;;;;;4.25;4.25;;;;;;;;5068252;28;45463;-79
2023/08/07 14:23:34;;;;;;;;;3.50;3.50;;;;;;;;5052674;28;45440;-78
2023/08/07 14:25:59;;;;;;;;;4.00;4.00;;;;;;;;5083687;28;45418;-78
2023/08/07 14:28:25;;;;;;;;;4.25;4.25;;;;;;;;5081084;28;45356;-78
2023/08/07 14:30:51;;;;;;;;;6.00;5.00;;;;;;;;5073611;28;47066;-79
2023/08/07 14:33:17;;;;;;;;;4.50;3.50;;;;;;;;5067955;28;45382;-79
2023/08/07 14:35:42;;;;;;;;;6.00;5.00;;;;;;;;5080019;28;45765;-77